sensor_id;sensor_type;location;lat;lon;timestamp;P1;durP1;ratioP1;P2;durP2;ratioP2
21517;SDS011;61765;45.794;24.150;2022-08-19T00:03:45;16.02;;;13.93;;
21517;SDS011;61765;45.794;24.150;2022-08-19T00:07:50;22.17;;;15.15;;
21517;SDS011;61765;45.794;24.150;2022-08-19T00:11:58;22.67;;;14.70;;
21517;SDS011;61765;45.794;24.150;2022-08-19T00:16:04;17.23;;;14.10;;
21517;SDS011;61765;45.794;24.150;2022-08-19T00:20:11;16.15;;;13.25;;
21517;SDS011;61765;45.794;24.150;2022-08-19T00:24:21;15.10;;;12.70;;
21517;SDS011;61765;45.794;24.150;2022-08-19T00:28:29;20.85;;;13.20;;
21517;SDS011;61765;45.794;24.150;2022-08-19T00:32:36;15.32;;;13.38;;
21517;SDS011;61765;45.794;24.150;2022-08-19T00:36:42;17.23;;;13.23;;
21517;SDS011;61765;45.794;24.150;2022-08-19T00:40:48;17.25;;;13.77;;
21517;SDS011;61765;45.794;24.150;2022-08-19T00:44:56;17.10;;;13.18;;
21517;SDS011;61765;45.794;24.150;2022-08-19T00:49:02;15.85;;;13.60;;
21517;SDS011;61765;45.794;24.150;2022-08-19T00:53:16;17.73;;;14.23;;
21517;SDS011;61765;45.794;24.150;2022-08-19T00:57:26;19.08;;;13.60;;
21517;SDS011;61765;45.794;24.150;2022-08-19T01:01:37;17.52;;;14.93;;
21517;SDS011;61765;45.794;24.150;2022-08-19T01:05:45;16.75;;;14.88;;
21517;SDS011;61765;45.794;24.150;2022-08-19T01:09:52;18.95;;;14.40;;
21517;SDS011;61765;45.794;24.150;2022-08-19T01:13:59;16.40;;;13.73;;
21517;SDS011;61765;45.794;24.150;2022-08-19T01:18:08;15.63;;;13.63;;
21517;SDS011;61765;45.794;24.150;2022-08-19T01:22:16;17.23;;;14.52;;
21517;SDS011;61765;45.794;24.150;2022-08-19T01:26:38;21.33;;;14.55;;
21517;SDS011;61765;45.794;24.150;2022-08-19T01:30:47;17.75;;;14.27;;
21517;SDS011;61765;45.794;24.150;2022-08-19T01:34:52;18.02;;;13.93;;
21517;SDS011;61765;45.794;24.150;2022-08-19T01:39:03;17.95;;;14.43;;
21517;SDS011;61765;45.794;24.150;2022-08-19T01:43:11;19.73;;;13.55;;
21517;SDS011;61765;45.794;24.150;2022-08-19T01:47:16;19.27;;;14.55;;
21517;SDS011;61765;45.794;24.150;2022-08-19T01:51:22;18.65;;;14.07;;
21517;SDS011;61765;45.794;24.150;2022-08-19T01:55:30;18.23;;;14.48;;
21517;SDS011;61765;45.794;24.150;2022-08-19T01:59:42;16.60;;;12.85;;
21517;SDS011;61765;45.794;24.150;2022-08-19T02:03:49;16.23;;;13.45;;
21517;SDS011;61765;45.794;24.150;2022-08-19T02:07:57;15.57;;;13.38;;
21517;SDS011;61765;45.794;24.150;2022-08-19T02:12:06;17.02;;;14.20;;
21517;SDS011;61765;45.794;24.150;2022-08-19T02:16:12;18.73;;;13.77;;
21517;SDS011;61765;45.794;24.150;2022-08-19T02:20:17;16.20;;;12.55;;
21517;SDS011;61765;45.794;24.150;2022-08-19T02:24:25;19.75;;;13.65;;
21517;SDS011;61765;45.794;24.150;2022-08-19T02:28:33;16.60;;;13.85;;
21517;SDS011;61765;45.794;24.150;2022-08-19T02:32:38;14.52;;;12.95;;
21517;SDS011;61765;45.794;24.150;2022-08-19T02:36:45;16.30;;;14.00;;
21517;SDS011;61765;45.794;24.150;2022-08-19T02:40:53;18.17;;;13.65;;
21517;SDS011;61765;45.794;24.150;2022-08-19T02:45:03;15.00;;;13.05;;
21517;SDS011;61765;45.794;24.150;2022-08-19T02:49:09;16.02;;;13.88;;
21517;SDS011;61765;45.794;24.150;2022-08-19T02:53:18;18.63;;;14.35;;
21517;SDS011;61765;45.794;24.150;2022-08-19T02:57:23;15.70;;;14.00;;
21517;SDS011;61765;45.794;24.150;2022-08-19T03:01:32;18.73;;;13.55;;
21517;SDS011;61765;45.794;24.150;2022-08-19T03:05:38;16.17;;;13.18;;
21517;SDS011;61765;45.794;24.150;2022-08-19T03:09:49;18.20;;;13.13;;
21517;SDS011;61765;45.794;24.150;2022-08-19T03:13:55;20.00;;;13.77;;
21517;SDS011;61765;45.794;24.150;2022-08-19T03:18:04;16.65;;;12.80;;
21517;SDS011;61765;45.794;24.150;2022-08-19T03:22:10;15.23;;;12.93;;
21517;SDS011;61765;45.794;24.150;2022-08-19T03:26:16;17.35;;;12.13;;
21517;SDS011;61765;45.794;24.150;2022-08-19T03:30:21;18.73;;;13.35;;
21517;SDS011;61765;45.794;24.150;2022-08-19T03:34:30;15.40;;;13.80;;
21517;SDS011;61765;45.794;24.150;2022-08-19T03:38:37;13.32;;;11.93;;
21517;SDS011;61765;45.794;24.150;2022-08-19T03:42:44;15.43;;;13.32;;
21517;SDS011;61765;45.794;24.150;2022-08-19T03:46:51;14.45;;;12.48;;
21517;SDS011;61765;45.794;24.150;2022-08-19T03:51:02;17.60;;;13.35;;
21517;SDS011;61765;45.794;24.150;2022-08-19T03:55:09;15.43;;;12.43;;
21517;SDS011;61765;45.794;24.150;2022-08-19T03:59:16;14.52;;;13.02;;
21517;SDS011;61765;45.794;24.150;2022-08-19T04:03:27;14.25;;;11.52;;
21517;SDS011;61765;45.794;24.150;2022-08-19T04:07:35;16.42;;;14.18;;
21517;SDS011;61765;45.794;24.150;2022-08-19T04:11:42;19.95;;;12.73;;
21517;SDS011;61765;45.794;24.150;2022-08-19T04:15:48;20.75;;;13.13;;
21517;SDS011;61765;45.794;24.150;2022-08-19T04:19:54;19.02;;;12.98;;
21517;SDS011;61765;45.794;24.150;2022-08-19T04:24:03;18.42;;;14.15;;
21517;SDS011;61765;45.794;24.150;2022-08-19T04:28:10;15.40;;;12.88;;
21517;SDS011;61765;45.794;24.150;2022-08-19T04:32:17;14.65;;;11.80;;
21517;SDS011;61765;45.794;24.150;2022-08-19T04:36:23;16.00;;;12.60;;
21517;SDS011;61765;45.794;24.150;2022-08-19T04:40:33;15.02;;;11.10;;
21517;SDS011;61765;45.794;24.150;2022-08-19T04:45:00;15.05;;;12.13;;
21517;SDS011;61765;45.794;24.150;2022-08-19T04:49:09;15.98;;;12.30;;
21517;SDS011;61765;45.794;24.150;2022-08-19T04:53:16;16.23;;;11.85;;
21517;SDS011;61765;45.794;24.150;2022-08-19T04:57:24;14.70;;;11.77;;
21517;SDS011;61765;45.794;24.150;2022-08-19T05:01:30;13.23;;;11.18;;
21517;SDS011;61765;45.794;24.150;2022-08-19T05:05:38;16.88;;;12.13;;
21517;SDS011;61765;45.794;24.150;2022-08-19T05:09:45;18.20;;;12.20;;
21517;SDS011;61765;45.794;24.150;2022-08-19T05:14:02;15.70;;;12.57;;
21517;SDS011;61765;45.794;24.150;2022-08-19T05:18:07;17.80;;;12.55;;
21517;SDS011;61765;45.794;24.150;2022-08-19T05:22:25;14.35;;;11.77;;
21517;SDS011;61765;45.794;24.150;2022-08-19T05:26:36;17.42;;;12.68;;
21517;SDS011;61765;45.794;24.150;2022-08-19T05:30:45;19.17;;;11.85;;
21517;SDS011;61765;45.794;24.150;2022-08-19T05:34:52;15.02;;;10.70;;
21517;SDS011;61765;45.794;24.150;2022-08-19T05:38:58;12.68;;;10.50;;
21517;SDS011;61765;45.794;24.150;2022-08-19T05:43:03;13.75;;;10.57;;
21517;SDS011;61765;45.794;24.150;2022-08-19T05:47:12;14.23;;;9.70;;
21517;SDS011;61765;45.794;24.150;2022-08-19T05:51:21;13.40;;;10.18;;
21517;SDS011;61765;45.794;24.150;2022-08-19T05:55:29;15.20;;;10.02;;
21517;SDS011;61765;45.794;24.150;2022-08-19T05:59:35;24.52;;;11.13;;
21517;SDS011;61765;45.794;24.150;2022-08-19T06:03:43;13.88;;;9.85;;
21517;SDS011;61765;45.794;24.150;2022-08-19T06:07:50;20.13;;;10.82;;
21517;SDS011;61765;45.794;24.150;2022-08-19T06:11:57;12.43;;;9.68;;
21517;SDS011;61765;45.794;24.150;2022-08-19T06:16:04;13.73;;;9.60;;
21517;SDS011;61765;45.794;24.150;2022-08-19T06:20:13;19.33;;;10.38;;
21517;SDS011;61765;45.794;24.150;2022-08-19T06:24:40;11.53;;;10.33;;
21517;SDS011;61765;45.794;24.150;2022-08-19T06:28:46;12.18;;;10.27;;
21517;SDS011;61765;45.794;24.150;2022-08-19T06:32:52;12.75;;;9.75;;
21517;SDS011;61765;45.794;24.150;2022-08-19T06:37:00;11.10;;;8.75;;
21517;SDS011;61765;45.794;24.150;2022-08-19T06:41:07;12.13;;;9.10;;
21517;SDS011;61765;45.794;24.150;2022-08-19T06:45:12;13.38;;;9.68;;
21517;SDS011;61765;45.794;24.150;2022-08-19T06:49:25;15.32;;;9.50;;
21517;SDS011;61765;45.794;24.150;2022-08-19T06:53:35;13.20;;;9.73;;
21517;SDS011;61765;45.794;24.150;2022-08-19T06:57:41;11.75;;;9.15;;
21517;SDS011;61765;45.794;24.150;2022-08-19T07:01:47;11.13;;;8.90;;
21517;SDS011;61765;45.794;24.150;2022-08-19T07:05:54;16.00;;;9.15;;
21517;SDS011;61765;45.794;24.150;2022-08-19T07:10:04;12.40;;;10.18;;
21517;SDS011;61765;45.794;24.150;2022-08-19T07:14:11;13.38;;;9.65;;
21517;SDS011;61765;45.794;24.150;2022-08-19T07:18:20;14.55;;;8.68;;
21517;SDS011;61765;45.794;24.150;2022-08-19T07:22:27;16.00;;;10.05;;
21517;SDS011;61765;45.794;24.150;2022-08-19T07:26:38;14.43;;;9.80;;
21517;SDS011;61765;45.794;24.150;2022-08-19T07:30:45;11.88;;;9.23;;
21517;SDS011;61765;45.794;24.150;2022-08-19T07:34:53;17.52;;;9.10;;
21517;SDS011;61765;45.794;24.150;2022-08-19T07:38:59;12.40;;;9.13;;
21517;SDS011;61765;45.794;24.150;2022-08-19T07:43:10;12.18;;;8.75;;
21517;SDS011;61765;45.794;24.150;2022-08-19T07:47:18;10.10;;;8.55;;
21517;SDS011;61765;45.794;24.150;2022-08-19T07:51:44;12.52;;;8.80;;
21517;SDS011;61765;45.794;24.150;2022-08-19T07:55:50;10.60;;;8.82;;
21517;SDS011;61765;45.794;24.150;2022-08-19T07:59:58;12.75;;;8.32;;
21517;SDS011;61765;45.794;24.150;2022-08-19T08:04:12;12.20;;;8.20;;
21517;SDS011;61765;45.794;24.150;2022-08-19T08:08:31;10.38;;;7.95;;
21517;SDS011;61765;45.794;24.150;2022-08-19T08:12:49;10.63;;;7.75;;
21517;SDS011;61765;45.794;24.150;2022-08-19T08:17:13;9.57;;;7.32;;
21517;SDS011;61765;45.794;24.150;2022-08-19T08:21:41;10.55;;;6.85;;
21517;SDS011;61765;45.794;24.150;2022-08-19T08:25:47;10.30;;;7.32;;
21517;SDS011;61765;45.794;24.150;2022-08-19T08:29:53;9.13;;;7.22;;
21517;SDS011;61765;45.794;24.150;2022-08-19T08:34:01;10.13;;;6.18;;
21517;SDS011;61765;45.794;24.150;2022-08-19T08:38:06;8.70;;;6.72;;
21517;SDS011;61765;45.794;24.150;2022-08-19T08:42:13;8.00;;;6.70;;
21517;SDS011;61765;45.794;24.150;2022-08-19T08:46:25;6.32;;;5.72;;
21517;SDS011;61765;45.794;24.150;2022-08-19T08:54:47;6.50;;;5.65;;
21517;SDS011;61765;45.794;24.150;2022-08-19T08:58:58;7.70;;;5.40;;
21517;SDS011;61765;45.794;24.150;2022-08-19T09:03:10;9.30;;;5.70;;
21517;SDS011;61765;45.794;24.150;2022-08-19T09:07:30;7.13;;;5.53;;
21517;SDS011;61765;45.794;24.150;2022-08-19T09:11:55;6.00;;;5.32;;
21517;SDS011;61765;45.794;24.150;2022-08-19T09:16:13;7.55;;;5.80;;
21517;SDS011;61765;45.794;24.150;2022-08-19T09:20:28;11.10;;;6.50;;
21517;SDS011;61765;45.794;24.150;2022-08-19T09:24:38;8.15;;;6.93;;
21517;SDS011;61765;45.794;24.150;2022-08-19T09:28:44;7.80;;;6.28;;
21517;SDS011;61765;45.794;24.150;2022-08-19T09:32:52;7.63;;;5.40;;
21517;SDS011;61765;45.794;24.150;2022-08-19T09:36:58;7.68;;;5.78;;
21517;SDS011;61765;45.794;24.150;2022-08-19T09:41:07;7.28;;;5.25;;
21517;SDS011;61765;45.794;24.150;2022-08-19T09:45:16;7.88;;;5.63;;
21517;SDS011;61765;45.794;24.150;2022-08-19T09:49:24;6.68;;;5.60;;
21517;SDS011;61765;45.794;24.150;2022-08-19T09:53:30;8.10;;;5.25;;
21517;SDS011;61765;45.794;24.150;2022-08-19T09:57:40;7.47;;;5.50;;
21517;SDS011;61765;45.794;24.150;2022-08-19T10:01:46;5.68;;;5.07;;
21517;SDS011;61765;45.794;24.150;2022-08-19T10:05:52;7.47;;;5.63;;
21517;SDS011;61765;45.794;24.150;2022-08-19T10:09:59;6.25;;;5.65;;
21517;SDS011;61765;45.794;24.150;2022-08-19T10:14:07;7.45;;;5.72;;
21517;SDS011;61765;45.794;24.150;2022-08-19T10:18:13;8.15;;;5.60;;
21517;SDS011;61765;45.794;24.150;2022-08-19T10:22:20;6.40;;;5.80;;
21517;SDS011;61765;45.794;24.150;2022-08-19T10:26:27;7.55;;;5.10;;
21517;SDS011;61765;45.794;24.150;2022-08-19T10:30:36;6.35;;;5.03;;
21517;SDS011;61765;45.794;24.150;2022-08-19T10:34:42;7.07;;;4.93;;
21517;SDS011;61765;45.794;24.150;2022-08-19T10:38:50;8.13;;;4.90;;
21517;SDS011;61765;45.794;24.150;2022-08-19T10:42:59;5.78;;;4.50;;
21517;SDS011;61765;45.794;24.150;2022-08-19T10:47:07;5.05;;;4.00;;
21517;SDS011;61765;45.794;24.150;2022-08-19T10:51:26;6.25;;;4.07;;
21517;SDS011;61765;45.794;24.150;2022-08-19T10:55:52;4.47;;;3.78;;
21517;SDS011;61765;45.794;24.150;2022-08-19T11:00:10;4.18;;;3.83;;
21517;SDS011;61765;45.794;24.150;2022-08-19T11:04:20;5.10;;;4.30;;
21517;SDS011;61765;45.794;24.150;2022-08-19T11:08:30;5.10;;;4.25;;
21517;SDS011;61765;45.794;24.150;2022-08-19T11:12:36;4.22;;;3.80;;
21517;SDS011;61765;45.794;24.150;2022-08-19T11:16:43;5.55;;;3.75;;
21517;SDS011;61765;45.794;24.150;2022-08-19T11:20:51;5.60;;;3.85;;
21517;SDS011;61765;45.794;24.150;2022-08-19T11:29:02;6.57;;;3.75;;
21517;SDS011;61765;45.794;24.150;2022-08-19T11:33:12;4.63;;;3.45;;
21517;SDS011;61765;45.794;24.150;2022-08-19T11:37:20;6.00;;;3.58;;
21517;SDS011;61765;45.794;24.150;2022-08-19T11:41:26;4.20;;;3.60;;
21517;SDS011;61765;45.794;24.150;2022-08-19T11:45:32;7.65;;;3.55;;
21517;SDS011;61765;45.794;24.150;2022-08-19T11:49:37;5.13;;;3.53;;
21517;SDS011;61765;45.794;24.150;2022-08-19T11:53:45;5.78;;;3.75;;
21517;SDS011;61765;45.794;24.150;2022-08-19T11:57:51;4.07;;;3.67;;
21517;SDS011;61765;45.794;24.150;2022-08-19T12:01:57;4.43;;;3.47;;
21517;SDS011;61765;45.794;24.150;2022-08-19T12:06:03;4.45;;;4.05;;
21517;SDS011;61765;45.794;24.150;2022-08-19T12:10:12;5.65;;;3.75;;
21517;SDS011;61765;45.794;24.150;2022-08-19T12:14:19;7.00;;;4.20;;
21517;SDS011;61765;45.794;24.150;2022-08-19T12:18:25;4.10;;;3.37;;
21517;SDS011;61765;45.794;24.150;2022-08-19T12:22:31;4.83;;;3.93;;
21517;SDS011;61765;45.794;24.150;2022-08-19T12:26:39;7.18;;;3.88;;
21517;SDS011;61765;45.794;24.150;2022-08-19T12:30:57;4.43;;;3.95;;
21517;SDS011;61765;45.794;24.150;2022-08-19T12:35:03;4.03;;;3.67;;
21517;SDS011;61765;45.794;24.150;2022-08-19T12:39:10;4.40;;;3.40;;
21517;SDS011;61765;45.794;24.150;2022-08-19T12:43:18;4.10;;;3.75;;
21517;SDS011;61765;45.794;24.150;2022-08-19T12:47:24;4.18;;;3.80;;
21517;SDS011;61765;45.794;24.150;2022-08-19T12:51:32;5.07;;;4.53;;
21517;SDS011;61765;45.794;24.150;2022-08-19T12:55:38;3.77;;;3.57;;
21517;SDS011;61765;45.794;24.150;2022-08-19T13:03:51;4.45;;;3.60;;
21517;SDS011;61765;45.794;24.150;2022-08-19T13:07:57;6.15;;;3.80;;
21517;SDS011;61765;45.794;24.150;2022-08-19T13:12:04;4.25;;;3.42;;
21517;SDS011;61765;45.794;24.150;2022-08-19T13:16:17;3.67;;;3.38;;
21517;SDS011;61765;45.794;24.150;2022-08-19T13:20:25;5.07;;;4.68;;
21517;SDS011;61765;45.794;24.150;2022-08-19T13:24:31;4.28;;;3.83;;
21517;SDS011;61765;45.794;24.150;2022-08-19T13:28:38;4.68;;;4.07;;
21517;SDS011;61765;45.794;24.150;2022-08-19T13:33:00;4.35;;;3.63;;
21517;SDS011;61765;45.794;24.150;2022-08-19T13:37:18;5.30;;;3.53;;
21517;SDS011;61765;45.794;24.150;2022-08-19T13:41:43;5.18;;;4.13;;
21517;SDS011;61765;45.794;24.150;2022-08-19T13:45:51;4.55;;;4.00;;
21517;SDS011;61765;45.794;24.150;2022-08-19T13:50:01;6.32;;;4.40;;
21517;SDS011;61765;45.794;24.150;2022-08-19T13:54:07;6.80;;;4.35;;
21517;SDS011;61765;45.794;24.150;2022-08-19T13:58:13;4.35;;;3.92;;
21517;SDS011;61765;45.794;24.150;2022-08-19T14:02:19;5.72;;;3.95;;
21517;SDS011;61765;45.794;24.150;2022-08-19T14:06:27;4.70;;;3.75;;
21517;SDS011;61765;45.794;24.150;2022-08-19T14:10:32;4.47;;;4.07;;
21517;SDS011;61765;45.794;24.150;2022-08-19T14:14:38;6.38;;;3.97;;
21517;SDS011;61765;45.794;24.150;2022-08-19T14:18:44;3.88;;;3.58;;
21517;SDS011;61765;45.794;24.150;2022-08-19T14:22:52;4.07;;;3.67;;
21517;SDS011;61765;45.794;24.150;2022-08-19T14:26:58;4.30;;;3.90;;
21517;SDS011;61765;45.794;24.150;2022-08-19T14:31:05;4.90;;;3.88;;
21517;SDS011;61765;45.794;24.150;2022-08-19T14:35:11;4.47;;;3.80;;
21517;SDS011;61765;45.794;24.150;2022-08-19T14:39:20;4.43;;;3.92;;
21517;SDS011;61765;45.794;24.150;2022-08-19T14:43:26;3.78;;;3.47;;
21517;SDS011;61765;45.794;24.150;2022-08-19T14:47:31;4.47;;;4.07;;
21517;SDS011;61765;45.794;24.150;2022-08-19T14:51:40;4.50;;;4.03;;
21517;SDS011;61765;45.794;24.150;2022-08-19T14:55:49;6.32;;;4.13;;
21517;SDS011;61765;45.794;24.150;2022-08-19T14:59:55;5.18;;;3.90;;
21517;SDS011;61765;45.794;24.150;2022-08-19T15:04:01;4.30;;;3.90;;
21517;SDS011;61765;45.794;24.150;2022-08-19T15:08:07;5.05;;;4.53;;
21517;SDS011;61765;45.794;24.150;2022-08-19T15:12:15;6.40;;;5.05;;
21517;SDS011;61765;45.794;24.150;2022-08-19T15:16:23;5.40;;;4.55;;
21517;SDS011;61765;45.794;24.150;2022-08-19T15:20:29;6.15;;;4.05;;
21517;SDS011;61765;45.794;24.150;2022-08-19T15:24:35;6.63;;;4.55;;
21517;SDS011;61765;45.794;24.150;2022-08-19T15:28:51;6.35;;;4.78;;
21517;SDS011;61765;45.794;24.150;2022-08-19T15:32:57;9.45;;;4.60;;
21517;SDS011;61765;45.794;24.150;2022-08-19T15:37:02;6.05;;;4.95;;
21517;SDS011;61765;45.794;24.150;2022-08-19T15:41:14;4.93;;;4.53;;
21517;SDS011;61765;45.794;24.150;2022-08-19T15:45:29;6.72;;;4.53;;
21517;SDS011;61765;45.794;24.150;2022-08-19T15:49:35;5.63;;;4.40;;
21517;SDS011;61765;45.794;24.150;2022-08-19T15:53:41;6.10;;;5.20;;
21517;SDS011;61765;45.794;24.150;2022-08-19T15:57:47;7.50;;;5.60;;
21517;SDS011;61765;45.794;24.150;2022-08-19T16:02:07;7.03;;;5.70;;
21517;SDS011;61765;45.794;24.150;2022-08-19T16:06:33;7.18;;;5.55;;
21517;SDS011;61765;45.794;24.150;2022-08-19T16:10:38;10.80;;;8.20;;
21517;SDS011;61765;45.794;24.150;2022-08-19T16:14:44;11.57;;;6.70;;
21517;SDS011;61765;45.794;24.150;2022-08-19T16:18:53;7.40;;;5.57;;
21517;SDS011;61765;45.794;24.150;2022-08-19T16:22:59;7.85;;;5.45;;
21517;SDS011;61765;45.794;24.150;2022-08-19T16:27:05;8.55;;;5.43;;
21517;SDS011;61765;45.794;24.150;2022-08-19T16:31:12;6.80;;;4.72;;
21517;SDS011;61765;45.794;24.150;2022-08-19T16:35:21;10.00;;;5.97;;
21517;SDS011;61765;45.794;24.150;2022-08-19T16:39:26;8.35;;;5.20;;
21517;SDS011;61765;45.794;24.150;2022-08-19T16:43:32;7.03;;;4.32;;
21517;SDS011;61765;45.794;24.150;2022-08-19T16:47:40;9.73;;;4.57;;
21517;SDS011;61765;45.794;24.150;2022-08-19T16:51:48;6.07;;;4.97;;
21517;SDS011;61765;45.794;24.150;2022-08-19T16:55:54;7.05;;;5.30;;
21517;SDS011;61765;45.794;24.150;2022-08-19T16:59:59;10.02;;;5.07;;
21517;SDS011;61765;45.794;24.150;2022-08-19T17:04:09;8.45;;;5.03;;
21517;SDS011;61765;45.794;24.150;2022-08-19T17:08:18;7.15;;;5.57;;
21517;SDS011;61765;45.794;24.150;2022-08-19T17:12:24;10.77;;;5.80;;
21517;SDS011;61765;45.794;24.150;2022-08-19T17:16:34;6.72;;;5.32;;
21517;SDS011;61765;45.794;24.150;2022-08-19T17:20:40;8.35;;;5.75;;
21517;SDS011;61765;45.794;24.150;2022-08-19T17:24:49;8.45;;;6.20;;
21517;SDS011;61765;45.794;24.150;2022-08-19T17:28:59;8.02;;;5.70;;
21517;SDS011;61765;45.794;24.150;2022-08-19T17:33:04;6.65;;;4.60;;
21517;SDS011;61765;45.794;24.150;2022-08-19T17:37:10;6.05;;;5.45;;
21517;SDS011;61765;45.794;24.150;2022-08-19T17:41:19;7.25;;;5.60;;
21517;SDS011;61765;45.794;24.150;2022-08-19T17:45:24;6.88;;;5.60;;
21517;SDS011;61765;45.794;24.150;2022-08-19T17:49:31;7.80;;;5.78;;
21517;SDS011;61765;45.794;24.150;2022-08-19T17:53:38;6.75;;;5.82;;
21517;SDS011;61765;45.794;24.150;2022-08-19T17:57:46;8.00;;;6.47;;
21517;SDS011;61765;45.794;24.150;2022-08-19T18:01:51;10.00;;;7.57;;
21517;SDS011;61765;45.794;24.150;2022-08-19T18:05:57;10.38;;;7.88;;
21517;SDS011;61765;45.794;24.150;2022-08-19T18:10:03;12.32;;;8.93;;
21517;SDS011;61765;45.794;24.150;2022-08-19T18:14:11;12.63;;;8.55;;
21517;SDS011;61765;45.794;24.150;2022-08-19T18:18:16;13.73;;;8.13;;
21517;SDS011;61765;45.794;24.150;2022-08-19T18:22:23;14.82;;;8.15;;
21517;SDS011;61765;45.794;24.150;2022-08-19T18:26:31;11.52;;;8.48;;
21517;SDS011;61765;45.794;24.150;2022-08-19T18:30:39;14.07;;;7.53;;
21517;SDS011;61765;45.794;24.150;2022-08-19T18:34:44;11.75;;;7.68;;
21517;SDS011;61765;45.794;24.150;2022-08-19T18:38:50;9.00;;;8.05;;
21517;SDS011;61765;45.794;24.150;2022-08-19T18:43:08;9.88;;;7.15;;
21517;SDS011;61765;45.794;24.150;2022-08-19T18:47:29;9.55;;;6.78;;
21517;SDS011;61765;45.794;24.150;2022-08-19T18:51:49;11.20;;;7.22;;
21517;SDS011;61765;45.794;24.150;2022-08-19T18:55:54;11.57;;;7.30;;
21517;SDS011;61765;45.794;24.150;2022-08-19T19:00:00;8.70;;;6.90;;
21517;SDS011;61765;45.794;24.150;2022-08-19T19:04:08;12.13;;;8.73;;
21517;SDS011;61765;45.794;24.150;2022-08-19T19:08:14;11.70;;;8.40;;
21517;SDS011;61765;45.794;24.150;2022-08-19T19:12:19;11.88;;;7.85;;
21517;SDS011;61765;45.794;24.150;2022-08-19T19:16:29;9.13;;;6.88;;
21517;SDS011;61765;45.794;24.150;2022-08-19T19:20:37;12.32;;;8.23;;
21517;SDS011;61765;45.794;24.150;2022-08-19T19:24:43;16.20;;;8.60;;
21517;SDS011;61765;45.794;24.150;2022-08-19T19:28:48;21.02;;;10.25;;
21517;SDS011;61765;45.794;24.150;2022-08-19T19:32:55;18.30;;;10.50;;
21517;SDS011;61765;45.794;24.150;2022-08-19T19:37:04;13.95;;;10.35;;
21517;SDS011;61765;45.794;24.150;2022-08-19T19:41:10;15.05;;;10.70;;
21517;SDS011;61765;45.794;24.150;2022-08-19T19:45:17;16.45;;;10.52;;
21517;SDS011;61765;45.794;24.150;2022-08-19T19:49:23;14.35;;;10.18;;
21517;SDS011;61765;45.794;24.150;2022-08-19T19:53:31;19.85;;;11.00;;
21517;SDS011;61765;45.794;24.150;2022-08-19T19:57:37;17.88;;;12.40;;
21517;SDS011;61765;45.794;24.150;2022-08-19T20:01:42;15.77;;;12.38;;
21517;SDS011;61765;45.794;24.150;2022-08-19T20:05:49;22.15;;;11.10;;
21517;SDS011;61765;45.794;24.150;2022-08-19T20:09:58;15.38;;;9.93;;
21517;SDS011;61765;45.794;24.150;2022-08-19T20:14:04;14.00;;;9.73;;
21517;SDS011;61765;45.794;24.150;2022-08-19T20:18:11;19.02;;;8.57;;
21517;SDS011;61765;45.794;24.150;2022-08-19T20:22:17;18.65;;;8.60;;
21517;SDS011;61765;45.794;24.150;2022-08-19T20:26:26;10.02;;;6.90;;
21517;SDS011;61765;45.794;24.150;2022-08-19T20:30:34;9.18;;;7.45;;
21517;SDS011;61765;45.794;24.150;2022-08-19T20:34:46;10.15;;;7.55;;
21517;SDS011;61765;45.794;24.150;2022-08-19T20:38:52;9.70;;;8.05;;
21517;SDS011;61765;45.794;24.150;2022-08-19T20:43:00;9.88;;;7.85;;
21517;SDS011;61765;45.794;24.150;2022-08-19T20:47:10;11.43;;;8.18;;
21517;SDS011;61765;45.794;24.150;2022-08-19T20:51:15;12.38;;;8.20;;
21517;SDS011;61765;45.794;24.150;2022-08-19T20:55:21;12.55;;;8.68;;
21517;SDS011;61765;45.794;24.150;2022-08-19T20:59:29;11.05;;;7.25;;
21517;SDS011;61765;45.794;24.150;2022-08-19T21:03:35;12.98;;;8.68;;
21517;SDS011;61765;45.794;24.150;2022-08-19T21:07:43;13.27;;;8.45;;
21517;SDS011;61765;45.794;24.150;2022-08-19T21:11:49;12.93;;;8.05;;
21517;SDS011;61765;45.794;24.150;2022-08-19T21:15:57;10.35;;;7.03;;
21517;SDS011;61765;45.794;24.150;2022-08-19T21:20:06;12.05;;;7.60;;
21517;SDS011;61765;45.794;24.150;2022-08-19T21:24:12;10.45;;;7.05;;
21517;SDS011;61765;45.794;24.150;2022-08-19T21:28:18;8.60;;;6.90;;
21517;SDS011;61765;45.794;24.150;2022-08-19T21:32:41;10.32;;;7.55;;
21517;SDS011;61765;45.794;24.150;2022-08-19T21:36:53;13.68;;;7.43;;
21517;SDS011;61765;45.794;24.150;2022-08-19T21:40:59;8.63;;;7.32;;
21517;SDS011;61765;45.794;24.150;2022-08-19T21:45:07;9.07;;;7.13;;
21517;SDS011;61765;45.794;24.150;2022-08-19T21:49:16;9.15;;;6.80;;
21517;SDS011;61765;45.794;24.150;2022-08-19T21:53:22;10.23;;;7.45;;
21517;SDS011;61765;45.794;24.150;2022-08-19T21:57:35;11.38;;;6.70;;
21517;SDS011;61765;45.794;24.150;2022-08-19T22:01:42;11.95;;;7.60;;
21517;SDS011;61765;45.794;24.150;2022-08-19T22:05:57;9.80;;;6.95;;
21517;SDS011;61765;45.794;24.150;2022-08-19T22:10:03;12.35;;;7.32;;
21517;SDS011;61765;45.794;24.150;2022-08-19T22:14:09;11.55;;;7.47;;
21517;SDS011;61765;45.794;24.150;2022-08-19T22:18:15;10.50;;;8.18;;
21517;SDS011;61765;45.794;24.150;2022-08-19T22:22:24;10.32;;;7.68;;
21517;SDS011;61765;45.794;24.150;2022-08-19T22:26:31;10.82;;;8.10;;
21517;SDS011;61765;45.794;24.150;2022-08-19T22:30:37;13.55;;;7.82;;
21517;SDS011;61765;45.794;24.150;2022-08-19T22:34:43;12.07;;;7.65;;
21517;SDS011;61765;45.794;24.150;2022-08-19T22:38:51;10.38;;;7.50;;
21517;SDS011;61765;45.794;24.150;2022-08-19T22:42:57;10.70;;;7.30;;
21517;SDS011;61765;45.794;24.150;2022-08-19T22:47:04;15.70;;;7.40;;
21517;SDS011;61765;45.794;24.150;2022-08-19T22:51:10;12.35;;;8.05;;
21517;SDS011;61765;45.794;24.150;2022-08-19T22:55:32;10.38;;;7.82;;
21517;SDS011;61765;45.794;24.150;2022-08-19T22:59:39;12.30;;;7.50;;
21517;SDS011;61765;45.794;24.150;2022-08-19T23:03:45;12.52;;;7.60;;
21517;SDS011;61765;45.794;24.150;2022-08-19T23:07:50;10.55;;;6.88;;
21517;SDS011;61765;45.794;24.150;2022-08-19T23:12:00;11.90;;;7.25;;
21517;SDS011;61765;45.794;24.150;2022-08-19T23:16:06;14.85;;;7.43;;
21517;SDS011;61765;45.794;24.150;2022-08-19T23:20:13;10.38;;;7.57;;
21517;SDS011;61765;45.794;24.150;2022-08-19T23:24:18;11.13;;;7.78;;
21517;SDS011;61765;45.794;24.150;2022-08-19T23:28:26;12.63;;;8.02;;
21517;SDS011;61765;45.794;24.150;2022-08-19T23:32:44;13.13;;;6.95;;
21517;SDS011;61765;45.794;24.150;2022-08-19T23:36:50;11.55;;;7.63;;
21517;SDS011;61765;45.794;24.150;2022-08-19T23:40:56;9.82;;;8.05;;
21517;SDS011;61765;45.794;24.150;2022-08-19T23:45:06;8.55;;;7.15;;
21517;SDS011;61765;45.794;24.150;2022-08-19T23:49:13;10.90;;;7.70;;
21517;SDS011;61765;45.794;24.150;2022-08-19T23:53:18;12.25;;;7.95;;
21517;SDS011;61765;45.794;24.150;2022-08-19T23:57:24;9.35;;;7.22;;
